Huvudsida
METAR-TAF:

METAR-TAF

Flygplatser :

Uralsk flygplats

Oral, Kazakstan

latitud: 51-15N, longitud: 051-17E, höjd: 36 m

Aktuellt väderrapport

Denna rapport gjordes för 34 minuter sedan, klockan 01:00 UTC
Vind 6 kt från syd/sydväst
Temperatur 10°C
Fuktighet 71%
Tryck 1013 hPa
Sikt 10 km eller mer
Inga moln under 1 500 m eller inga cumulonimbus

METAR: UARR 220100Z 20003MPS CAVOK 10/05 Q1013 R22/CLRD70 NOSIG RMK QFE756/1008

Tid: 06:34 (01:34 UTC)

Väderprognos

Denna rapport gjordes för 2 timmar och 31 minuter sedan, klockan 23:03 UTC
Prognos gäller från 22 kl. 00 UTC till 22 kl. 09 UTC
Vind 10 kt från sydväst
Sikt 10 km eller mer
Spridda moln på en höjd av 3300 ft
Blir
från 22 kl. 04 UTC till 22 kl. 05 UTC
Vind 14 kt från sydväst i byarna ända upp till 23 kt

TAF: UARR 212303Z 2200/2209 22005MPS 9999 SCT033 BECMG 2204/2205 23007G12MPS

Aktuella väderrapporter och prognoser från 4000 flygplatser (METAR- och TAF-rapporter).

De tillgängliga stationerna syns som gula och röda prickar på kartan.

För musen över prickarna för att se namnen på stationerna.

Klicka sedan för att få väderrapporter och prognoser.

För att ändra kartan: Klicka på de gröna knapparna med ett svart kors på för att zooma in; den gröna knappen med ett streck på för att zooma ut; eller på de gröna pilarna för angränsande kartor.


METAR-TAF: